sensor_id;sensor_type;location;lat;lon;timestamp;P1;durP1;ratioP1;P2;durP2;ratioP2
72198;SDS011;60103;51.014;16.992;2022-12-18T00:01:31;42.90;;;10.70;;
72198;SDS011;60103;51.014;16.992;2022-12-18T00:04:02;25.70;;;8.80;;
72198;SDS011;60103;51.014;16.992;2022-12-18T00:06:34;40.90;;;11.00;;
72198;SDS011;60103;51.014;16.992;2022-12-18T00:09:03;29.40;;;9.60;;
72198;SDS011;60103;51.014;16.992;2022-12-18T00:11:32;35.80;;;11.50;;
72198;SDS011;60103;51.014;16.992;2022-12-18T00:14:02;27.40;;;8.60;;
72198;SDS011;60103;51.014;16.992;2022-12-18T00:16:30;36.30;;;10.10;;
72198;SDS011;60103;51.014;16.992;2022-12-18T00:19:01;36.10;;;9.60;;
72198;SDS011;60103;51.014;16.992;2022-12-18T00:21:30;36.90;;;10.70;;
72198;SDS011;60103;51.014;16.992;2022-12-18T00:24:01;31.80;;;9.40;;
72198;SDS011;60103;51.014;16.992;2022-12-18T00:26:31;28.70;;;9.30;;
72198;SDS011;60103;51.014;16.992;2022-12-18T00:29:03;21.80;;;6.40;;
72198;SDS011;60103;51.014;16.992;2022-12-18T00:31:45;34.00;;;9.30;;
72198;SDS011;60103;51.014;16.992;2022-12-18T00:34:14;33.60;;;9.30;;
72198;SDS011;60103;51.014;16.992;2022-12-18T00:36:42;32.50;;;10.50;;
72198;SDS011;60103;51.014;16.992;2022-12-18T00:39:12;28.40;;;9.50;;
72198;SDS011;60103;51.014;16.992;2022-12-18T00:41:44;31.40;;;8.60;;
72198;SDS011;60103;51.014;16.992;2022-12-18T00:44:32;30.70;;;10.00;;
72198;SDS011;60103;51.014;16.992;2022-12-18T00:47:00;32.30;;;9.90;;
72198;SDS011;60103;51.014;16.992;2022-12-18T00:49:30;30.40;;;9.00;;
72198;SDS011;60103;51.014;16.992;2022-12-18T00:51:58;28.30;;;8.90;;
72198;SDS011;60103;51.014;16.992;2022-12-18T00:54:27;25.90;;;7.40;;
72198;SDS011;60103;51.014;16.992;2022-12-18T00:56:56;33.50;;;10.20;;
72198;SDS011;60103;51.014;16.992;2022-12-18T00:59:25;26.50;;;8.10;;
72198;SDS011;60103;51.014;16.992;2022-12-18T01:01:54;28.30;;;8.80;;
72198;SDS011;60103;51.014;16.992;2022-12-18T01:04:22;31.80;;;9.20;;
72198;SDS011;60103;51.014;16.992;2022-12-18T01:06:51;27.50;;;8.50;;
72198;SDS011;60103;51.014;16.992;2022-12-18T01:09:20;28.00;;;8.30;;
72198;SDS011;60103;51.014;16.992;2022-12-18T01:11:49;27.80;;;7.30;;
72198;SDS011;60103;51.014;16.992;2022-12-18T01:14:18;25.10;;;7.10;;
72198;SDS011;60103;51.014;16.992;2022-12-18T01:16:47;26.50;;;8.20;;
72198;SDS011;60103;51.014;16.992;2022-12-18T01:19:16;31.70;;;9.70;;
72198;SDS011;60103;51.014;16.992;2022-12-18T01:21:46;27.30;;;8.10;;
72198;SDS011;60103;51.014;16.992;2022-12-18T01:24:15;32.00;;;8.80;;
72198;SDS011;60103;51.014;16.992;2022-12-18T01:26:44;27.00;;;9.00;;
72198;SDS011;60103;51.014;16.992;2022-12-18T01:29:14;25.40;;;7.90;;
72198;SDS011;60103;51.014;16.992;2022-12-18T01:31:43;28.70;;;7.90;;
72198;SDS011;60103;51.014;16.992;2022-12-18T01:34:12;26.30;;;8.20;;
72198;SDS011;60103;51.014;16.992;2022-12-18T01:36:42;27.10;;;7.70;;
72198;SDS011;60103;51.014;16.992;2022-12-18T01:39:11;27.70;;;8.60;;
72198;SDS011;60103;51.014;16.992;2022-12-18T01:41:42;26.10;;;8.40;;
72198;SDS011;60103;51.014;16.992;2022-12-18T01:49:58;30.80;;;8.80;;
72198;SDS011;60103;51.014;16.992;2022-12-18T01:52:30;24.40;;;7.90;;
72198;SDS011;60103;51.014;16.992;2022-12-18T01:55:00;32.40;;;8.80;;
72198;SDS011;60103;51.014;16.992;2022-12-18T01:57:31;27.70;;;7.80;;
72198;SDS011;60103;51.014;16.992;2022-12-18T02:00:04;27.80;;;8.00;;
72198;SDS011;60103;51.014;16.992;2022-12-18T02:02:43;24.60;;;8.20;;
72198;SDS011;60103;51.014;16.992;2022-12-18T02:05:15;25.70;;;8.10;;
72198;SDS011;60103;51.014;16.992;2022-12-18T02:07:54;26.20;;;7.40;;
72198;SDS011;60103;51.014;16.992;2022-12-18T02:13:17;23.70;;;6.50;;
72198;SDS011;60103;51.014;16.992;2022-12-18T02:16:12;26.50;;;8.80;;
72198;SDS011;60103;51.014;16.992;2022-12-18T02:18:58;26.60;;;7.50;;
72198;SDS011;60103;51.014;16.992;2022-12-18T02:26:56;26.60;;;7.70;;
72198;SDS011;60103;51.014;16.992;2022-12-18T02:29:38;30.90;;;8.50;;
72198;SDS011;60103;51.014;16.992;2022-12-18T02:32:11;25.00;;;7.10;;
72198;SDS011;60103;51.014;16.992;2022-12-18T02:34:43;25.10;;;7.90;;
72198;SDS011;60103;51.014;16.992;2022-12-18T02:37:15;28.60;;;7.90;;
72198;SDS011;60103;51.014;16.992;2022-12-18T02:39:46;27.20;;;7.60;;
72198;SDS011;60103;51.014;16.992;2022-12-18T02:42:16;24.90;;;7.80;;
72198;SDS011;60103;51.014;16.992;2022-12-18T02:44:47;32.80;;;9.30;;
72198;SDS011;60103;51.014;16.992;2022-12-18T02:47:21;22.30;;;6.80;;
72198;SDS011;60103;51.014;16.992;2022-12-18T02:50:02;30.70;;;8.00;;
72198;SDS011;60103;51.014;16.992;2022-12-18T02:55:32;30.90;;;9.50;;
72198;SDS011;60103;51.014;16.992;2022-12-18T02:58:20;21.30;;;6.40;;
72198;SDS011;60103;51.014;16.992;2022-12-18T03:06:29;25.50;;;7.90;;
72198;SDS011;60103;51.014;16.992;2022-12-18T03:09:06;26.80;;;8.20;;
72198;SDS011;60103;51.014;16.992;2022-12-18T03:11:37;25.10;;;6.90;;
72198;SDS011;60103;51.014;16.992;2022-12-18T03:14:28;25.00;;;7.40;;
72198;SDS011;60103;51.014;16.992;2022-12-18T03:17:00;25.30;;;7.60;;
72198;SDS011;60103;51.014;16.992;2022-12-18T03:19:32;34.20;;;9.70;;
72198;SDS011;60103;51.014;16.992;2022-12-18T03:22:02;25.80;;;8.00;;
72198;SDS011;60103;51.014;16.992;2022-12-18T03:24:40;25.60;;;6.80;;
72198;SDS011;60103;51.014;16.992;2022-12-18T03:27:10;17.80;;;4.70;;
72198;SDS011;60103;51.014;16.992;2022-12-18T03:29:48;27.60;;;7.70;;
72198;SDS011;60103;51.014;16.992;2022-12-18T03:32:25;27.10;;;5.80;;
72198;SDS011;60103;51.014;16.992;2022-12-18T03:34:59;24.90;;;8.20;;
72198;SDS011;60103;51.014;16.992;2022-12-18T03:37:33;28.60;;;8.80;;
72198;SDS011;60103;51.014;16.992;2022-12-18T03:40:03;13.20;;;3.50;;
72198;SDS011;60103;51.014;16.992;2022-12-18T03:45:23;28.90;;;8.10;;
72198;SDS011;60103;51.014;16.992;2022-12-18T03:48:13;31.20;;;9.30;;
72198;SDS011;60103;51.014;16.992;2022-12-18T03:51:02;28.30;;;7.90;;
72198;SDS011;60103;51.014;16.992;2022-12-18T03:56:16;23.10;;;7.20;;
72198;SDS011;60103;51.014;16.992;2022-12-18T03:58:45;26.60;;;6.80;;
72198;SDS011;60103;51.014;16.992;2022-12-18T04:01:22;23.70;;;7.70;;
72198;SDS011;60103;51.014;16.992;2022-12-18T04:03:54;22.60;;;6.90;;
72198;SDS011;60103;51.014;16.992;2022-12-18T04:06:26;13.70;;;4.40;;
72198;SDS011;60103;51.014;16.992;2022-12-18T04:08:55;19.90;;;6.30;;
72198;SDS011;60103;51.014;16.992;2022-12-18T04:11:26;24.70;;;7.90;;
72198;SDS011;60103;51.014;16.992;2022-12-18T04:13:56;20.40;;;6.50;;
72198;SDS011;60103;51.014;16.992;2022-12-18T04:16:25;18.60;;;5.90;;
72198;SDS011;60103;51.014;16.992;2022-12-18T04:18:56;21.60;;;6.30;;
72198;SDS011;60103;51.014;16.992;2022-12-18T04:21:26;24.60;;;7.40;;
72198;SDS011;60103;51.014;16.992;2022-12-18T04:23:55;19.20;;;5.20;;
72198;SDS011;60103;51.014;16.992;2022-12-18T04:26:23;16.10;;;4.60;;
72198;SDS011;60103;51.014;16.992;2022-12-18T04:29:05;23.30;;;7.20;;
72198;SDS011;60103;51.014;16.992;2022-12-18T04:31:34;16.80;;;5.30;;
72198;SDS011;60103;51.014;16.992;2022-12-18T04:34:03;19.00;;;6.20;;
72198;SDS011;60103;51.014;16.992;2022-12-18T04:36:38;26.20;;;8.00;;
72198;SDS011;60103;51.014;16.992;2022-12-18T04:39:07;20.50;;;6.90;;
72198;SDS011;60103;51.014;16.992;2022-12-18T04:41:36;23.70;;;7.20;;
72198;SDS011;60103;51.014;16.992;2022-12-18T04:44:05;23.50;;;7.40;;
72198;SDS011;60103;51.014;16.992;2022-12-18T04:46:34;25.40;;;8.10;;
72198;SDS011;60103;51.014;16.992;2022-12-18T04:49:04;28.90;;;8.90;;
72198;SDS011;60103;51.014;16.992;2022-12-18T04:51:33;26.40;;;8.00;;
72198;SDS011;60103;51.014;16.992;2022-12-18T04:54:03;30.60;;;9.90;;
72198;SDS011;60103;51.014;16.992;2022-12-18T04:56:32;25.70;;;7.40;;
72198;SDS011;60103;51.014;16.992;2022-12-18T04:59:01;23.50;;;7.50;;
72198;SDS011;60103;51.014;16.992;2022-12-18T05:01:30;18.00;;;5.80;;
72198;SDS011;60103;51.014;16.992;2022-12-18T05:04:02;21.70;;;6.70;;
72198;SDS011;60103;51.014;16.992;2022-12-18T05:06:32;25.90;;;8.70;;
72198;SDS011;60103;51.014;16.992;2022-12-18T05:09:01;22.70;;;6.40;;
72198;SDS011;60103;51.014;16.992;2022-12-18T05:11:29;21.20;;;6.50;;
72198;SDS011;60103;51.014;16.992;2022-12-18T05:13:58;23.40;;;7.70;;
72198;SDS011;60103;51.014;16.992;2022-12-18T05:16:27;22.60;;;7.00;;
72198;SDS011;60103;51.014;16.992;2022-12-18T05:18:56;17.00;;;6.20;;
72198;SDS011;60103;51.014;16.992;2022-12-18T05:21:25;18.80;;;5.60;;
72198;SDS011;60103;51.014;16.992;2022-12-18T05:23:53;25.90;;;8.80;;
72198;SDS011;60103;51.014;16.992;2022-12-18T05:26:22;24.60;;;7.90;;
72198;SDS011;60103;51.014;16.992;2022-12-18T05:28:51;26.50;;;7.50;;
72198;SDS011;60103;51.014;16.992;2022-12-18T05:31:20;15.30;;;5.50;;
72198;SDS011;60103;51.014;16.992;2022-12-18T05:33:49;27.50;;;7.60;;
72198;SDS011;60103;51.014;16.992;2022-12-18T05:36:17;29.90;;;10.10;;
72198;SDS011;60103;51.014;16.992;2022-12-18T05:38:46;30.20;;;9.20;;
72198;SDS011;60103;51.014;16.992;2022-12-18T05:41:15;28.80;;;7.60;;
72198;SDS011;60103;51.014;16.992;2022-12-18T05:43:44;22.20;;;8.10;;
72198;SDS011;60103;51.014;16.992;2022-12-18T05:46:15;25.00;;;7.30;;
72198;SDS011;60103;51.014;16.992;2022-12-18T05:48:45;19.00;;;6.60;;
72198;SDS011;60103;51.014;16.992;2022-12-18T05:51:15;27.20;;;8.30;;
72198;SDS011;60103;51.014;16.992;2022-12-18T05:53:46;26.10;;;7.00;;
72198;SDS011;60103;51.014;16.992;2022-12-18T05:56:16;20.40;;;6.50;;
72198;SDS011;60103;51.014;16.992;2022-12-18T05:58:47;17.00;;;5.80;;
72198;SDS011;60103;51.014;16.992;2022-12-18T06:01:17;24.20;;;8.00;;
72198;SDS011;60103;51.014;16.992;2022-12-18T06:03:48;23.60;;;7.60;;
72198;SDS011;60103;51.014;16.992;2022-12-18T06:06:18;29.90;;;8.60;;
72198;SDS011;60103;51.014;16.992;2022-12-18T06:08:50;26.90;;;7.60;;
72198;SDS011;60103;51.014;16.992;2022-12-18T06:11:23;27.20;;;8.80;;
72198;SDS011;60103;51.014;16.992;2022-12-18T06:13:54;17.50;;;5.50;;
72198;SDS011;60103;51.014;16.992;2022-12-18T06:16:26;25.00;;;7.40;;
72198;SDS011;60103;51.014;16.992;2022-12-18T06:18:56;21.50;;;6.30;;
72198;SDS011;60103;51.014;16.992;2022-12-18T06:21:27;21.10;;;6.80;;
72198;SDS011;60103;51.014;16.992;2022-12-18T06:23:58;24.00;;;6.90;;
72198;SDS011;60103;51.014;16.992;2022-12-18T06:26:27;24.40;;;8.00;;
72198;SDS011;60103;51.014;16.992;2022-12-18T06:28:56;27.70;;;8.10;;
72198;SDS011;60103;51.014;16.992;2022-12-18T06:31:25;24.30;;;6.90;;
72198;SDS011;60103;51.014;16.992;2022-12-18T06:33:55;19.30;;;6.80;;
72198;SDS011;60103;51.014;16.992;2022-12-18T06:36:25;21.70;;;6.90;;
72198;SDS011;60103;51.014;16.992;2022-12-18T06:38:54;26.80;;;8.30;;
72198;SDS011;60103;51.014;16.992;2022-12-18T06:41:22;17.10;;;6.00;;
72198;SDS011;60103;51.014;16.992;2022-12-18T06:43:52;17.30;;;6.20;;
72198;SDS011;60103;51.014;16.992;2022-12-18T06:46:26;19.60;;;6.30;;
72198;SDS011;60103;51.014;16.992;2022-12-18T06:48:55;20.00;;;7.10;;
72198;SDS011;60103;51.014;16.992;2022-12-18T06:51:24;23.50;;;7.60;;
72198;SDS011;60103;51.014;16.992;2022-12-18T06:53:54;16.20;;;5.90;;
72198;SDS011;60103;51.014;16.992;2022-12-18T06:56:23;16.40;;;5.90;;
72198;SDS011;60103;51.014;16.992;2022-12-18T06:58:52;18.30;;;5.90;;
72198;SDS011;60103;51.014;16.992;2022-12-18T07:01:21;19.60;;;5.20;;
72198;SDS011;60103;51.014;16.992;2022-12-18T07:03:54;13.40;;;4.00;;
72198;SDS011;60103;51.014;16.992;2022-12-18T07:06:24;18.30;;;6.40;;
72198;SDS011;60103;51.014;16.992;2022-12-18T07:08:55;15.70;;;5.00;;
72198;SDS011;60103;51.014;16.992;2022-12-18T07:11:24;15.90;;;4.80;;
72198;SDS011;60103;51.014;16.992;2022-12-18T07:13:53;15.30;;;5.00;;
72198;SDS011;60103;51.014;16.992;2022-12-18T07:16:23;19.80;;;6.30;;
72198;SDS011;60103;51.014;16.992;2022-12-18T07:18:54;16.60;;;4.80;;
72198;SDS011;60103;51.014;16.992;2022-12-18T07:21:23;16.30;;;4.90;;
72198;SDS011;60103;51.014;16.992;2022-12-18T07:23:53;20.20;;;6.80;;
72198;SDS011;60103;51.014;16.992;2022-12-18T07:26:22;17.80;;;5.50;;
72198;SDS011;60103;51.014;16.992;2022-12-18T07:28:54;19.00;;;7.70;;
72198;SDS011;60103;51.014;16.992;2022-12-18T07:31:25;16.70;;;5.70;;
72198;SDS011;60103;51.014;16.992;2022-12-18T07:33:56;20.60;;;7.30;;
72198;SDS011;60103;51.014;16.992;2022-12-18T07:36:25;21.40;;;6.20;;
72198;SDS011;60103;51.014;16.992;2022-12-18T07:38:53;21.40;;;7.00;;
72198;SDS011;60103;51.014;16.992;2022-12-18T07:41:27;24.40;;;7.30;;
72198;SDS011;60103;51.014;16.992;2022-12-18T07:43:57;21.10;;;6.40;;
72198;SDS011;60103;51.014;16.992;2022-12-18T07:46:26;25.10;;;7.80;;
72198;SDS011;60103;51.014;16.992;2022-12-18T07:48:55;19.90;;;7.80;;
72198;SDS011;60103;51.014;16.992;2022-12-18T07:51:24;18.30;;;6.60;;
72198;SDS011;60103;51.014;16.992;2022-12-18T07:53:54;18.50;;;6.20;;
72198;SDS011;60103;51.014;16.992;2022-12-18T07:56:24;21.80;;;7.60;;
72198;SDS011;60103;51.014;16.992;2022-12-18T07:58:56;22.20;;;6.90;;
72198;SDS011;60103;51.014;16.992;2022-12-18T08:01:26;22.10;;;7.50;;
72198;SDS011;60103;51.014;16.992;2022-12-18T08:03:56;22.30;;;6.90;;
72198;SDS011;60103;51.014;16.992;2022-12-18T08:06:25;20.60;;;7.50;;
72198;SDS011;60103;51.014;16.992;2022-12-18T08:08:55;18.80;;;6.70;;
72198;SDS011;60103;51.014;16.992;2022-12-18T08:11:25;22.40;;;6.70;;
72198;SDS011;60103;51.014;16.992;2022-12-18T08:13:55;21.10;;;6.60;;
72198;SDS011;60103;51.014;16.992;2022-12-18T08:16:25;18.50;;;6.40;;
72198;SDS011;60103;51.014;16.992;2022-12-18T08:18:54;17.70;;;6.00;;
72198;SDS011;60103;51.014;16.992;2022-12-18T08:21:24;21.10;;;7.40;;
72198;SDS011;60103;51.014;16.992;2022-12-18T08:23:59;26.80;;;8.50;;
72198;SDS011;60103;51.014;16.992;2022-12-18T08:26:30;21.30;;;7.60;;
72198;SDS011;60103;51.014;16.992;2022-12-18T08:28:59;25.90;;;8.60;;
72198;SDS011;60103;51.014;16.992;2022-12-18T08:31:30;19.90;;;7.10;;
72198;SDS011;60103;51.014;16.992;2022-12-18T08:33:59;16.50;;;6.80;;
72198;SDS011;60103;51.014;16.992;2022-12-18T08:36:28;26.50;;;8.30;;
72198;SDS011;60103;51.014;16.992;2022-12-18T08:38:57;27.60;;;9.20;;
72198;SDS011;60103;51.014;16.992;2022-12-18T08:41:27;17.30;;;6.40;;
72198;SDS011;60103;51.014;16.992;2022-12-18T08:43:56;21.50;;;6.70;;
72198;SDS011;60103;51.014;16.992;2022-12-18T08:46:46;24.70;;;8.40;;
72198;SDS011;60103;51.014;16.992;2022-12-18T08:49:15;22.60;;;7.10;;
72198;SDS011;60103;51.014;16.992;2022-12-18T08:51:44;23.70;;;7.30;;
72198;SDS011;60103;51.014;16.992;2022-12-18T08:54:13;21.30;;;8.20;;
72198;SDS011;60103;51.014;16.992;2022-12-18T08:56:42;13.80;;;5.20;;
72198;SDS011;60103;51.014;16.992;2022-12-18T08:59:12;21.60;;;7.20;;
72198;SDS011;60103;51.014;16.992;2022-12-18T09:01:47;18.80;;;5.80;;
72198;SDS011;60103;51.014;16.992;2022-12-18T09:04:16;19.20;;;6.30;;
72198;SDS011;60103;51.014;16.992;2022-12-18T09:06:45;20.60;;;7.70;;
72198;SDS011;60103;51.014;16.992;2022-12-18T09:09:14;18.80;;;6.50;;
72198;SDS011;60103;51.014;16.992;2022-12-18T09:11:43;22.00;;;7.10;;
72198;SDS011;60103;51.014;16.992;2022-12-18T09:14:12;19.60;;;6.60;;
72198;SDS011;60103;51.014;16.992;2022-12-18T09:16:41;17.20;;;7.00;;
72198;SDS011;60103;51.014;16.992;2022-12-18T09:19:13;23.30;;;8.30;;
72198;SDS011;60103;51.014;16.992;2022-12-18T09:21:42;17.20;;;5.30;;
72198;SDS011;60103;51.014;16.992;2022-12-18T09:24:16;26.20;;;8.70;;
72198;SDS011;60103;51.014;16.992;2022-12-18T09:26:45;21.40;;;6.20;;
72198;SDS011;60103;51.014;16.992;2022-12-18T09:29:15;27.60;;;8.80;;
72198;SDS011;60103;51.014;16.992;2022-12-18T09:31:47;18.20;;;7.30;;
72198;SDS011;60103;51.014;16.992;2022-12-18T09:34:17;16.90;;;5.90;;
72198;SDS011;60103;51.014;16.992;2022-12-18T09:36:49;15.90;;;6.40;;
72198;SDS011;60103;51.014;16.992;2022-12-18T09:39:19;23.30;;;8.60;;
72198;SDS011;60103;51.014;16.992;2022-12-18T09:41:51;25.90;;;8.50;;
72198;SDS011;60103;51.014;16.992;2022-12-18T09:44:30;22.90;;;7.20;;
72198;SDS011;60103;51.014;16.992;2022-12-18T09:47:13;21.30;;;6.40;;
72198;SDS011;60103;51.014;16.992;2022-12-18T09:49:47;15.70;;;6.10;;
72198;SDS011;60103;51.014;16.992;2022-12-18T09:54:53;24.70;;;7.20;;
72198;SDS011;60103;51.014;16.992;2022-12-18T09:57:25;25.20;;;9.10;;
72198;SDS011;60103;51.014;16.992;2022-12-18T10:02:59;21.50;;;7.70;;
72198;SDS011;60103;51.014;16.992;2022-12-18T10:05:37;19.80;;;7.00;;
72198;SDS011;60103;51.014;16.992;2022-12-18T10:11:25;17.10;;;6.40;;
72198;SDS011;60103;51.014;16.992;2022-12-18T10:14:36;26.70;;;8.50;;
72198;SDS011;60103;51.014;16.992;2022-12-18T10:28:38;21.90;;;7.40;;
72198;SDS011;60103;51.014;16.992;2022-12-18T10:31:27;23.10;;;8.30;;
72198;SDS011;60103;51.014;16.992;2022-12-18T10:33:55;19.60;;;7.50;;
72198;SDS011;60103;51.014;16.992;2022-12-18T10:36:24;22.80;;;7.30;;
72198;SDS011;60103;51.014;16.992;2022-12-18T10:38:53;22.80;;;8.60;;
72198;SDS011;60103;51.014;16.992;2022-12-18T10:44:12;22.60;;;7.20;;
72198;SDS011;60103;51.014;16.992;2022-12-18T10:46:46;24.90;;;8.90;;
72198;SDS011;60103;51.014;16.992;2022-12-18T10:49:25;26.60;;;9.80;;
72198;SDS011;60103;51.014;16.992;2022-12-18T10:52:14;31.60;;;9.40;;
72198;SDS011;60103;51.014;16.992;2022-12-18T10:54:48;21.90;;;8.50;;
72198;SDS011;60103;51.014;16.992;2022-12-18T10:59:55;26.20;;;9.20;;
72198;SDS011;60103;51.014;16.992;2022-12-18T11:02:33;29.40;;;10.80;;
72198;SDS011;60103;51.014;16.992;2022-12-18T11:07:55;17.70;;;7.00;;
72198;SDS011;60103;51.014;16.992;2022-12-18T11:10:26;24.90;;;8.60;;
72198;SDS011;60103;51.014;16.992;2022-12-18T11:15:45;23.80;;;7.60;;
72198;SDS011;60103;51.014;16.992;2022-12-18T11:18:19;19.80;;;6.30;;
72198;SDS011;60103;51.014;16.992;2022-12-18T11:20:52;24.90;;;8.60;;
72198;SDS011;60103;51.014;16.992;2022-12-18T11:23:25;23.70;;;7.70;;
72198;SDS011;60103;51.014;16.992;2022-12-18T11:25:59;18.30;;;6.30;;
72198;SDS011;60103;51.014;16.992;2022-12-18T11:28:37;14.70;;;5.60;;
72198;SDS011;60103;51.014;16.992;2022-12-18T11:31:23;20.70;;;5.90;;
72198;SDS011;60103;51.014;16.992;2022-12-18T11:36:53;19.30;;;5.90;;
72198;SDS011;60103;51.014;16.992;2022-12-18T11:42:09;20.50;;;7.30;;
72198;SDS011;60103;51.014;16.992;2022-12-18T11:47:58;19.30;;;6.60;;
72198;SDS011;60103;51.014;16.992;2022-12-18T11:50:44;16.80;;;6.10;;
72198;SDS011;60103;51.014;16.992;2022-12-18T11:53:19;19.70;;;6.90;;
72198;SDS011;60103;51.014;16.992;2022-12-18T11:55:58;21.20;;;6.70;;
72198;SDS011;60103;51.014;16.992;2022-12-18T12:01:15;29.10;;;8.50;;
72198;SDS011;60103;51.014;16.992;2022-12-18T12:15:38;27.30;;;8.20;;
72198;SDS011;60103;51.014;16.992;2022-12-18T12:35:29;18.70;;;7.00;;
72198;SDS011;60103;51.014;16.992;2022-12-18T12:40:43;33.90;;;11.80;;
72198;SDS011;60103;51.014;16.992;2022-12-18T12:43:41;24.40;;;7.90;;
72198;SDS011;60103;51.014;16.992;2022-12-18T12:46:18;25.40;;;9.40;;
72198;SDS011;60103;51.014;16.992;2022-12-18T12:48:56;27.80;;;8.00;;
72198;SDS011;60103;51.014;16.992;2022-12-18T12:51:28;33.90;;;8.60;;
72198;SDS011;60103;51.014;16.992;2022-12-18T12:54:02;25.00;;;9.00;;
72198;SDS011;60103;51.014;16.992;2022-12-18T12:56:40;25.00;;;8.10;;
72198;SDS011;60103;51.014;16.992;2022-12-18T13:07:56;28.30;;;10.30;;
72198;SDS011;60103;51.014;16.992;2022-12-18T13:10:32;21.50;;;6.70;;
72198;SDS011;60103;51.014;16.992;2022-12-18T13:15:41;28.40;;;9.90;;
72198;SDS011;60103;51.014;16.992;2022-12-18T13:18:17;32.00;;;9.50;;
72198;SDS011;60103;51.014;16.992;2022-12-18T13:23:33;22.20;;;8.30;;
72198;SDS011;60103;51.014;16.992;2022-12-18T13:40:24;31.80;;;9.50;;
72198;SDS011;60103;51.014;16.992;2022-12-18T13:45:49;26.00;;;9.90;;
72198;SDS011;60103;51.014;16.992;2022-12-18T13:48:38;24.20;;;8.50;;
72198;SDS011;60103;51.014;16.992;2022-12-18T13:51:11;35.90;;;9.50;;
72198;SDS011;60103;51.014;16.992;2022-12-18T13:54:05;28.90;;;9.30;;
72198;SDS011;60103;51.014;16.992;2022-12-18T13:56:46;27.80;;;9.50;;
72198;SDS011;60103;51.014;16.992;2022-12-18T13:59:20;23.90;;;9.20;;
72198;SDS011;60103;51.014;16.992;2022-12-18T14:04:27;27.20;;;10.60;;
72198;SDS011;60103;51.014;16.992;2022-12-18T14:07:03;32.00;;;9.70;;
72198;SDS011;60103;51.014;16.992;2022-12-18T14:09:57;30.70;;;9.20;;
72198;SDS011;60103;51.014;16.992;2022-12-18T14:12:47;30.10;;;8.50;;
72198;SDS011;60103;51.014;16.992;2022-12-18T14:16:05;29.80;;;10.60;;
72198;SDS011;60103;51.014;16.992;2022-12-18T14:18:38;28.00;;;9.60;;
72198;SDS011;60103;51.014;16.992;2022-12-18T14:21:31;22.20;;;7.80;;
72198;SDS011;60103;51.014;16.992;2022-12-18T14:24:03;24.20;;;9.20;;
72198;SDS011;60103;51.014;16.992;2022-12-18T14:26:34;25.00;;;8.60;;
72198;SDS011;60103;51.014;16.992;2022-12-18T14:29:21;32.30;;;10.10;;
72198;SDS011;60103;51.014;16.992;2022-12-18T14:32:12;30.10;;;9.50;;
72198;SDS011;60103;51.014;16.992;2022-12-18T14:37:26;31.30;;;11.40;;
72198;SDS011;60103;51.014;16.992;2022-12-18T14:42:37;27.70;;;9.00;;
72198;SDS011;60103;51.014;16.992;2022-12-18T14:50:55;24.20;;;8.80;;
72198;SDS011;60103;51.014;16.992;2022-12-18T14:53:46;22.40;;;7.70;;
72198;SDS011;60103;51.014;16.992;2022-12-18T14:56:23;27.30;;;8.80;;
72198;SDS011;60103;51.014;16.992;2022-12-18T14:58:54;26.80;;;7.90;;
72198;SDS011;60103;51.014;16.992;2022-12-18T15:01:35;22.60;;;7.40;;
72198;SDS011;60103;51.014;16.992;2022-12-18T15:04:23;23.50;;;7.50;;
72198;SDS011;60103;51.014;16.992;2022-12-18T15:09:47;19.80;;;8.30;;
72198;SDS011;60103;51.014;16.992;2022-12-18T15:12:36;30.40;;;11.10;;
72198;SDS011;60103;51.014;16.992;2022-12-18T15:23:23;25.60;;;7.90;;
72198;SDS011;60103;51.014;16.992;2022-12-18T15:26:01;20.30;;;8.70;;
72198;SDS011;60103;51.014;16.992;2022-12-18T15:28:52;31.00;;;10.20;;
72198;SDS011;60103;51.014;16.992;2022-12-18T15:31:41;26.00;;;10.20;;
72198;SDS011;60103;51.014;16.992;2022-12-18T15:34:22;22.80;;;9.10;;
72198;SDS011;60103;51.014;16.992;2022-12-18T15:36:56;32.30;;;10.50;;
72198;SDS011;60103;51.014;16.992;2022-12-18T15:39:27;28.70;;;8.40;;
72198;SDS011;60103;51.014;16.992;2022-12-18T15:42:04;26.80;;;9.90;;
72198;SDS011;60103;51.014;16.992;2022-12-18T15:44:54;26.20;;;9.40;;
72198;SDS011;60103;51.014;16.992;2022-12-18T15:47:25;16.40;;;6.40;;
72198;SDS011;60103;51.014;16.992;2022-12-18T15:49:56;30.70;;;10.50;;
72198;SDS011;60103;51.014;16.992;2022-12-18T15:52:27;26.70;;;9.30;;
72198;SDS011;60103;51.014;16.992;2022-12-18T15:55:01;29.70;;;10.30;;
72198;SDS011;60103;51.014;16.992;2022-12-18T15:57:53;20.20;;;6.70;;
72198;SDS011;60103;51.014;16.992;2022-12-18T16:00:24;27.90;;;8.70;;
72198;SDS011;60103;51.014;16.992;2022-12-18T16:02:55;21.90;;;8.00;;
72198;SDS011;60103;51.014;16.992;2022-12-18T16:05:27;19.10;;;8.20;;
72198;SDS011;60103;51.014;16.992;2022-12-18T16:08:00;28.90;;;7.80;;
72198;SDS011;60103;51.014;16.992;2022-12-18T16:10:37;33.40;;;9.80;;
72198;SDS011;60103;51.014;16.992;2022-12-18T16:13:11;30.20;;;9.70;;
72198;SDS011;60103;51.014;16.992;2022-12-18T16:15:43;26.40;;;8.80;;
72198;SDS011;60103;51.014;16.992;2022-12-18T16:18:14;27.00;;;9.60;;
72198;SDS011;60103;51.014;16.992;2022-12-18T16:20:49;23.10;;;8.20;;
72198;SDS011;60103;51.014;16.992;2022-12-18T16:23:23;21.60;;;8.40;;
72198;SDS011;60103;51.014;16.992;2022-12-18T16:25:57;32.70;;;10.40;;
72198;SDS011;60103;51.014;16.992;2022-12-18T16:28:28;22.30;;;8.60;;
72198;SDS011;60103;51.014;16.992;2022-12-18T16:31:00;30.70;;;13.60;;
72198;SDS011;60103;51.014;16.992;2022-12-18T16:33:34;31.10;;;10.40;;
72198;SDS011;60103;51.014;16.992;2022-12-18T16:36:04;22.10;;;8.50;;
72198;SDS011;60103;51.014;16.992;2022-12-18T16:38:48;28.30;;;9.00;;
72198;SDS011;60103;51.014;16.992;2022-12-18T16:41:26;28.50;;;10.00;;
72198;SDS011;60103;51.014;16.992;2022-12-18T16:44:03;17.80;;;7.80;;
72198;SDS011;60103;51.014;16.992;2022-12-18T16:46:34;24.70;;;8.10;;
72198;SDS011;60103;51.014;16.992;2022-12-18T16:49:07;39.40;;;9.80;;
72198;SDS011;60103;51.014;16.992;2022-12-18T16:51:37;36.00;;;10.10;;
72198;SDS011;60103;51.014;16.992;2022-12-18T16:54:08;22.90;;;9.70;;
72198;SDS011;60103;51.014;16.992;2022-12-18T16:56:46;33.40;;;10.20;;
72198;SDS011;60103;51.014;16.992;2022-12-18T16:59:21;27.80;;;9.90;;
72198;SDS011;60103;51.014;16.992;2022-12-18T17:01:52;49.60;;;15.10;;
72198;SDS011;60103;51.014;16.992;2022-12-18T17:04:26;46.40;;;13.20;;
72198;SDS011;60103;51.014;16.992;2022-12-18T17:06:58;36.00;;;13.40;;
72198;SDS011;60103;51.014;16.992;2022-12-18T17:09:29;44.10;;;15.30;;
72198;SDS011;60103;51.014;16.992;2022-12-18T17:12:00;57.80;;;16.70;;
72198;SDS011;60103;51.014;16.992;2022-12-18T17:14:34;35.80;;;11.80;;
72198;SDS011;60103;51.014;16.992;2022-12-18T17:17:06;49.90;;;16.80;;
72198;SDS011;60103;51.014;16.992;2022-12-18T17:19:51;51.00;;;13.20;;
72198;SDS011;60103;51.014;16.992;2022-12-18T17:22:21;51.30;;;14.70;;
72198;SDS011;60103;51.014;16.992;2022-12-18T17:24:54;61.60;;;17.80;;
72198;SDS011;60103;51.014;16.992;2022-12-18T17:27:26;37.10;;;13.60;;
72198;SDS011;60103;51.014;16.992;2022-12-18T17:29:56;22.60;;;8.10;;
72198;SDS011;60103;51.014;16.992;2022-12-18T17:32:29;42.20;;;12.90;;
72198;SDS011;60103;51.014;16.992;2022-12-18T17:35:01;49.80;;;15.00;;